Time;durP1;ratioP1;P1;durP2;ratioP2;P2;SDS_P1;SDS_P2;PMS_P1;PMS_P2;Temp;Humidity;BMP_temperature;BMP_pressure;BME280_temperature;BME280_humidity;BME280_pressure;Samples;Min_cycle;Max_cycle;Signal;HPM_P1;HPM_P2
2022/04/15 00:00:18;;;;;;;18.40;10.60;;;;;;;9.69;75.06;99661.26;25143;1313;3026201;-76
2022/04/15 00:02:48;;;;;;;14.10;7.90;;;;;;;9.55;75.54;99656.61;25119;1313;3026758;-77
2022/04/15 00:05:34;;;;;;;22.50;8.50;;;;;;;10.06;74.94;99652.06;25220;1313;3026554;-75
2022/04/15 00:08:04;;;;;;;17.80;9.20;;;;;;;10.54;73.00;99651.02;25166;1313;3056183;-74
2022/04/15 00:10:52;;;;;;;17.10;9.30;;;;;;;10.64;72.22;99654.83;25149;1316;3056448;-76
2022/04/15 00:13:24;;;;;;;21.20;10.20;;;;;;;10.28;72.75;99658.23;25272;1313;3028629;-77
2022/04/15 00:15:53;;;;;;;20.60;9.40;;;;;;;9.93;74.14;99659.61;25279;1316;3052982;-77
2022/04/15 00:18:34;;;;;;;19.10;10.40;;;;;;;9.75;74.49;99662.00;25255;1313;3059391;-76
2022/04/15 00:21:03;;;;;;;30.10;12.80;;;;;;;9.57;75.40;99662.95;25161;1313;3027053;-76
2022/04/15 00:23:33;;;;;;;34.10;13.80;;;;;;;10.05;74.54;99657.03;25159;1319;3026753;-77
2022/04/15 00:26:17;;;;;;;35.90;15.60;;;;;;;10.59;72.53;99657.57;25169;1316;3053803;-76
2022/04/15 00:28:47;;;;;;;37.30;13.60;;;;;;;10.46;72.80;99658.11;25137;1313;3028518;-77
2022/04/15 00:31:16;;;;;;;32.60;17.10;;;;;;;10.36;72.76;99652.36;25156;1313;3052311;-74
2022/04/15 00:34:04;;;;;;;67.30;29.40;;;;;;;9.94;74.00;99656.77;25128;1316;3051405;-74
2022/04/15 00:36:34;;;;;;;55.20;21.40;;;;;;;9.77;74.55;99657.70;25137;1316;3026880;-73
2022/04/15 00:39:03;;;;;;;31.10;14.70;;;;;;;9.49;76.00;99666.70;25191;1313;3026303;-77
2022/04/15 00:41:32;;;;;;;28.50;11.40;;;;;;;9.87;75.51;99663.28;25768;1313;3050316;-72
2022/04/15 00:44:01;;;;;;;23.70;12.00;;;;;;;10.30;73.66;99658.66;25926;1313;3026177;-75
2022/04/15 00:46:31;;;;;;;24.30;13.10;;;;;;;10.23;73.60;99661.48;25941;1313;3054101;-75
2022/04/15 00:49:00;;;;;;;20.50;11.70;;;;;;;9.84;74.76;99663.95;25209;1313;3028578;-74
2022/04/15 00:51:41;;;;;;;32.90;14.70;;;;;;;9.68;75.13;99663.45;25162;1313;3051156;-76
2022/04/15 00:54:11;;;;;;;30.30;16.30;;;;;;;9.54;75.32;99664.90;25127;1316;3030029;-77
2022/04/15 00:56:40;;;;;;;21.90;10.20;;;;;;;9.36;76.36;99667.05;25234;1313;3026380;-76
2022/04/15 00:59:29;;;;;;;18.40;9.70;;;;;;;9.94;75.36;99662.04;25130;1315;3071421;-76
2022/04/15 01:01:59;;;;;;;18.60;9.20;;;;;;;10.15;74.12;99662.80;25111;1316;3030430;-76
2022/04/15 01:04:29;;;;;;;24.90;10.10;;;;;;;10.11;73.94;99663.34;25267;1315;3051225;-74
2022/04/15 01:07:01;;;;;;;23.10;10.20;;;;;;;9.83;74.47;99665.06;25096;1316;3027074;-76
2022/04/15 01:09:33;;;;;;;15.30;9.20;;;;;;;9.61;75.12;99673.27;25129;1316;3026428;-76
2022/04/15 01:12:03;;;;;;;22.50;12.00;;;;;;;9.43;75.55;99670.48;25237;1316;3026740;-74
2022/04/15 01:14:32;;;;;;;17.90;8.90;;;;;;;9.34;76.30;99674.15;25110;1316;3026739;-75
2022/04/15 01:17:02;;;;;;;35.10;10.00;;;;;;;9.81;75.28;99669.55;25130;1316;3026099;-74
2022/04/15 01:19:31;;;;;;;23.10;8.80;;;;;;;10.07;74.11;99669.67;25175;1316;3050496;-75
2022/04/15 01:22:02;;;;;;;23.10;10.60;;;;;;;10.03;74.15;99666.27;25116;1318;3027351;-75
2022/04/15 01:24:31;;;;;;;17.40;10.30;;;;;;;9.84;74.49;99662.59;25217;1314;3026375;-75
2022/04/15 01:27:00;;;;;;;21.10;10.90;;;;;;;9.59;75.38;99669.34;25131;1319;3027287;-76
2022/04/15 01:29:37;;;;;;;26.40;10.90;;;;;;;9.35;75.99;99670.58;25227;1313;3026591;-76
2022/04/15 01:32:08;;;;;;;17.30;9.30;;;;;;;9.27;76.14;99664.36;25174;1316;3050034;-74
2022/04/15 01:34:36;;;;;;;18.20;10.50;;;;;;;9.64;75.75;99658.73;25136;1313;3026890;-74
2022/04/15 01:37:06;;;;;;;29.50;13.70;;;;;;;10.13;74.20;99657.67;25139;1313;3026046;-75
2022/04/15 01:39:35;;;;;;;30.60;14.60;;;;;;;10.09;73.87;99656.63;25151;1319;3053076;-75
2022/04/15 01:42:04;;;;;;;34.40;14.50;;;;;;;9.95;73.84;99656.19;25128;1318;3026727;-74
2022/04/15 01:44:34;;;;;;;25.50;13.40;;;;;;;9.69;74.61;99657.77;25115;1316;3026632;-77
2022/04/15 01:47:04;;;;;;;30.60;12.60;;;;;;;9.46;75.24;99656.02;25178;1316;3026319;-76
2022/04/15 01:49:34;;;;;;;27.20;13.50;;;;;;;9.27;75.76;99657.71;25120;1319;3069043;-73
2022/04/15 01:52:07;;;;;;;23.50;11.00;;;;;;;9.18;76.18;99657.48;25134;1316;3026446;-75
2022/04/15 01:54:36;;;;;;;28.80;13.10;;;;;;;9.68;75.34;99659.92;25099;1316;3051701;-74
2022/04/15 01:57:05;;;;;;;28.40;12.70;;;;;;;10.21;74.05;99659.32;25155;1316;3028473;-75
2022/04/15 01:59:35;;;;;;;27.30;12.80;;;;;;;10.25;73.34;99659.11;25158;1316;3055136;-75
2022/04/15 02:02:04;;;;;;;25.10;12.60;;;;;;;10.03;73.64;99657.86;25116;1313;3028533;-76
2022/04/15 02:04:34;;;;;;;26.80;14.30;;;;;;;9.74;74.12;99659.42;25149;1313;3049471;-75
2022/04/15 02:07:03;;;;;;;23.30;10.40;;;;;;;9.55;74.29;99667.09;25157;1316;3026314;-77
2022/04/15 02:09:32;;;;;;;19.00;8.90;;;;;;;9.36;75.20;99666.54;25168;1313;3057794;-76
2022/04/15 02:12:01;;;;;;;14.60;7.50;;;;;;;9.71;75.28;99662.55;25174;1316;3026881;-74
2022/04/15 02:14:34;;;;;;;17.60;9.00;;;;;;;10.21;73.29;99662.32;25177;1313;3055087;-75
2022/04/15 02:17:13;;;;;;;22.50;10.30;;;;;;;10.01;73.50;99665.14;25257;1316;3059183;-74
2022/04/15 02:19:42;;;;;;;17.40;10.10;;;;;;;9.85;73.64;99662.84;25103;1316;3028534;-74
2022/04/15 02:22:11;;;;;;;18.30;9.00;;;;;;;9.61;74.22;99669.38;25205;1316;3054508;-75
2022/04/15 02:24:40;;;;;;;23.70;10.70;;;;;;;9.37;74.89;99672.94;25130;1319;3027084;-75
2022/04/15 02:27:09;;;;;;;17.20;8.10;;;;;;;9.16;75.87;99670.20;25186;1313;3054659;-74
2022/04/15 02:29:38;;;;;;;15.20;8.60;;;;;;;9.59;75.44;99672.80;25131;1316;3026568;-77
2022/04/15 02:32:08;;;;;;;21.50;9.40;;;;;;;9.94;74.06;99670.41;25187;1313;3048399;-75
2022/04/15 02:34:37;;;;;;;18.80;9.30;;;;;;;9.79;74.09;99677.69;25164;1313;3026494;-76
2022/04/15 02:37:06;;;;;;;26.30;10.40;;;;;;;9.64;74.20;99681.13;25134;1313;3027158;-75
2022/04/15 02:39:35;;;;;;;19.20;10.50;;;;;;;9.30;75.31;99689.53;25197;1313;3051424;-76
2022/04/15 02:42:04;;;;;;;21.10;10.20;;;;;;;9.05;76.08;99693.77;25132;1316;3026506;-73
2022/04/15 02:44:33;;;;;;;17.40;8.10;;;;;;;8.88;76.88;99695.89;25161;1315;3070703;-75
2022/04/15 02:47:03;;;;;;;20.70;9.30;;;;;;;9.37;76.11;99697.89;25190;1316;3027467;-75
2022/04/15 02:49:40;;;;;;;12.90;7.60;;;;;;;9.80;74.26;99693.02;25116;1313;3054935;-74
2022/04/15 02:52:10;;;;;;;18.00;8.40;;;;;;;9.67;74.12;99693.56;25165;1315;3028515;-78
2022/04/15 02:54:40;;;;;;;17.80;8.50;;;;;;;9.56;74.47;99698.89;25143;1313;3026969;-75
2022/04/15 02:57:12;;;;;;;23.10;9.10;;;;;;;9.26;75.23;99702.72;25115;1316;3028604;-74
2022/04/15 02:59:41;;;;;;;17.70;8.50;;;;;;;9.04;75.89;99704.01;25170;1313;3026475;-75
2022/04/15 03:02:09;;;;;;;15.90;7.60;;;;;;;9.00;75.91;99704.02;25136;1313;3057069;-74
2022/04/15 03:04:39;;;;;;;19.40;7.00;;;;;;;9.44;75.60;99699.48;25136;1313;3026753;-74
2022/04/15 03:07:07;;;;;;;15.30;8.10;;;;;;;9.85;73.73;99701.17;25164;1313;3051959;-74
2022/04/15 03:09:37;;;;;;;17.00;8.70;;;;;;;9.82;73.46;99698.36;25140;1316;3027282;-76
2022/04/15 03:12:08;;;;;;;18.00;9.60;;;;;;;9.51;74.19;99705.76;25166;1315;3053833;-76
2022/04/15 03:14:38;;;;;;;20.60;10.20;;;;;;;9.29;74.91;99707.95;25230;1312;3028579;-75
2022/04/15 03:17:07;;;;;;;23.60;10.40;;;;;;;9.15;75.27;99710.61;25160;1313;3042512;-78
2022/04/15 03:19:36;;;;;;;21.50;10.10;;;;;;;8.99;75.79;99713.47;25150;1316;3054371;-74
2022/04/15 03:22:05;;;;;;;15.70;7.70;;;;;;;8.86;76.70;99716.39;25194;1316;3026281;-75
2022/04/15 03:24:36;;;;;;;18.10;7.50;;;;;;;9.59;75.56;99712.34;25205;1313;3048952;-75
2022/04/15 03:27:05;;;;;;;18.10;8.80;;;;;;;10.12;73.09;99710.95;25143;1313;3026739;-76
2022/04/15 03:29:35;;;;;;;23.80;11.20;;;;;;;9.92;73.11;99710.07;25186;1316;3026574;-75
2022/04/15 03:32:06;;;;;;;23.60;11.40;;;;;;;9.63;73.80;99714.24;25174;1313;3026270;-77
2022/04/15 03:34:35;;;;;;;22.50;11.50;;;;;;;9.49;74.38;99715.33;25159;1313;3028661;-76
2022/04/15 03:37:04;;;;;;;21.50;11.70;;;;;;;9.27;75.02;99725.70;25175;1313;3026374;-74
2022/04/15 03:39:33;;;;;;;25.00;11.60;;;;;;;9.11;75.52;99723.01;25219;1316;3056665;-76
2022/04/15 03:42:03;;;;;;;21.30;9.50;;;;;;;9.07;75.75;99722.52;25136;1313;3026306;-74
2022/04/15 03:44:32;;;;;;;18.50;9.60;;;;;;;9.60;75.03;99724.52;25118;1313;3027350;-77
2022/04/15 03:47:03;;;;;;;22.20;10.80;;;;;;;10.16;73.05;99721.23;25129;1313;3026259;-75
2022/04/15 03:49:34;;;;;;;22.80;10.30;;;;;;;10.12;72.28;99725.81;25167;1312;3026709;-73
2022/04/15 03:52:03;;;;;;;21.80;10.40;;;;;;;9.98;72.63;99724.64;25157;1313;3026434;-76
2022/04/15 03:54:48;;;;;;;27.80;12.80;;;;;;;9.77;72.99;99726.98;25143;1313;3055034;-76
2022/04/15 03:57:17;;;;;;;23.80;11.00;;;;;;;9.59;73.24;99727.74;25254;1312;3026999;-75
2022/04/15 03:59:47;;;;;;;25.20;11.80;;;;;;;9.28;74.56;99735.27;25153;1312;3051906;-75
2022/04/15 04:02:36;;;;;;;22.90;9.20;;;;;;;9.13;75.48;99740.55;25138;1312;3052405;-77
2022/04/15 04:05:08;;;;;;;22.70;9.50;;;;;;;9.73;74.20;99737.70;25176;1311;3026997;-77
2022/04/15 04:07:38;;;;;;;25.50;9.20;;;;;;;10.35;72.31;99738.05;25161;1316;3026910;-75
2022/04/15 04:10:07;;;;;;;27.90;11.20;;;;;;;10.39;71.21;99736.77;25171;1312;3026769;-74
2022/04/15 04:12:36;;;;;;;22.60;11.40;;;;;;;10.06;71.94;99736.44;25105;1313;3054399;-77
2022/04/15 04:15:05;;;;;;;24.60;11.60;;;;;;;9.90;72.55;99736.45;25274;1313;3030676;-74
2022/04/15 04:17:35;;;;;;;23.30;11.90;;;;;;;9.83;72.59;99737.48;25170;1312;3054268;-76
2022/04/15 04:20:05;;;;;;;20.70;10.80;;;;;;;9.76;72.59;99739.09;25108;1316;3026945;-77
2022/04/15 04:22:35;;;;;;;27.80;12.60;;;;;;;9.65;72.78;99740.38;25113;1312;3026463;-76
2022/04/15 04:25:08;;;;;;;20.20;9.50;;;;;;;9.56;73.40;99740.80;25120;1313;3026446;-76
2022/04/15 04:27:40;;;;;;;20.10;9.60;;;;;;;10.19;72.71;99738.33;25258;1313;3055531;-76
2022/04/15 04:30:12;;;;;;;21.90;10.30;;;;;;;10.70;70.47;99738.21;25190;1313;3026617;-75
2022/04/15 04:32:42;;;;;;;21.00;11.10;;;;;;;10.79;70.35;99740.36;25240;1313;3026085;-75
2022/04/15 04:35:11;;;;;;;24.00;10.70;;;;;;;10.76;70.04;99741.73;25180;1312;3027201;-77
2022/04/15 04:38:00;;;;;;;21.30;11.00;;;;;;;10.42;70.43;99740.44;25197;1316;3053457;-76
2022/04/15 04:40:29;;;;;;;28.20;11.90;;;;;;;10.23;71.05;99745.31;25139;1316;3026450;-77
2022/04/15 04:42:58;;;;;;;23.30;11.40;;;;;;;10.06;72.03;99747.63;25157;1316;3026628;-75
2022/04/15 04:45:28;;;;;;;27.30;12.30;;;;;;;10.01;72.25;99746.55;25122;1315;3055143;-77
2022/04/15 04:48:00;;;;;;;21.10;9.60;;;;;;;10.02;72.38;99747.16;25162;1316;3030050;-76
2022/04/15 04:50:29;;;;;;;20.10;9.00;;;;;;;10.62;71.28;99742.70;25178;1315;3026501;-74
2022/04/15 04:53:00;;;;;;;20.00;10.00;;;;;;;11.08;69.67;99739.90;25177;1315;3026615;-76
2022/04/15 04:55:30;;;;;;;23.90;9.60;;;;;;;11.30;68.85;99740.19;25149;1314;3026775;-74
2022/04/15 04:57:59;;;;;;;25.10;10.90;;;;;;;11.31;68.49;99736.95;25182;1313;3058082;-74
2022/04/15 05:00:28;;;;;;;22.40;10.40;;;;;;;11.19;68.78;99735.77;25196;1315;3028788;-78
2022/04/15 05:02:57;;;;;;;22.70;10.60;;;;;;;11.02;69.08;99740.56;25383;1313;3051453;-74
2022/04/15 05:05:27;;;;;;;24.40;11.90;;;;;;;10.93;69.56;99740.23;25962;1313;3026335;-75
2022/04/15 05:07:57;;;;;;;26.90;12.40;;;;;;;10.85;69.82;99742.45;25980;1313;3026874;-74
2022/04/15 05:10:46;;;;;;;22.30;11.30;;;;;;;10.84;70.03;99743.02;25348;1315;3053189;-77
2022/04/15 05:13:15;;;;;;;26.10;11.90;;;;;;;10.94;69.51;99745.46;25186;1316;3026461;-78
2022/04/15 05:16:04;;;;;;;19.90;8.90;;;;;;;11.00;69.38;99746.83;25122;1316;3068763;-76
2022/04/15 05:18:34;;;;;;;18.70;8.60;;;;;;;11.71;68.36;99745.23;25165;1315;3026501;-76
2022/04/15 05:21:23;;;;;;;24.10;10.50;;;;;;;12.36;65.70;99744.06;25222;1316;3055005;-77
2022/04/15 05:23:52;;;;;;;27.00;10.40;;;;;;;12.54;65.37;99745.23;25173;1314;3026974;-75
2022/04/15 05:26:21;;;;;;;23.60;10.50;;;;;;;12.43;64.76;99747.16;25267;1316;3028701;-77
2022/04/15 05:28:51;;;;;;;26.10;11.30;;;;;;;12.36;65.59;99749.20;25280;1313;3052259;-77
2022/04/15 05:31:23;;;;;;;24.60;11.50;;;;;;;12.24;65.70;99750.11;25178;1313;3027461;-76
2022/04/15 05:33:54;;;;;;;27.60;10.80;;;;;;;11.97;66.13;99755.08;25133;1315;3026995;-76
2022/04/15 05:36:23;;;;;;;25.40;10.60;;;;;;;11.87;66.32;99755.15;25248;1315;3026436;-78
2022/04/15 05:38:52;;;;;;;23.20;11.30;;;;;;;11.85;66.04;99753.90;25160;1316;3026335;-76
2022/04/15 05:41:22;;;;;;;22.60;10.90;;;;;;;11.75;66.07;99751.52;25171;1313;3058244;-77
2022/04/15 05:43:51;;;;;;;25.10;11.80;;;;;;;11.69;66.29;99749.77;25212;1314;3028294;-76
2022/04/15 05:46:20;;;;;;;26.90;13.00;;;;;;;11.71;66.48;99753.19;25158;1316;3052506;-76
2022/04/15 05:48:49;;;;;;;30.60;11.60;;;;;;;11.76;66.30;99755.85;25242;1316;3026638;-76
2022/04/15 05:51:19;;;;;;;29.00;11.90;;;;;;;11.71;66.19;99761.23;25129;1316;3026301;-77
2022/04/15 05:53:48;;;;;;;33.00;12.00;;;;;;;11.66;66.34;99761.17;25158;1316;3026496;-75
2022/04/15 05:56:18;;;;;;;28.90;12.00;;;;;;;11.65;66.65;99763.55;25124;1315;3026197;-76
2022/04/15 05:58:47;;;;;;;26.90;12.40;;;;;;;11.60;67.25;99768.18;25227;1316;3026345;-75
2022/04/15 06:01:17;;;;;;;32.80;13.00;;;;;;;11.55;66.58;99769.73;25126;1316;3055450;-78
2022/04/15 06:03:46;;;;;;;27.00;12.30;;;;;;;11.47;66.37;99772.15;25136;1316;3026389;-76
2022/04/15 06:06:15;;;;;;;37.00;12.80;;;;;;;11.36;66.55;99772.12;25260;1313;3029377;-76
2022/04/15 06:08:44;;;;;;;30.90;13.30;;;;;;;11.36;66.69;99772.96;25142;1316;3053183;-76
2022/04/15 06:11:13;;;;;;;29.10;14.10;;;;;;;11.35;66.37;99767.23;25283;1314;3026460;-78
2022/04/15 06:13:47;;;;;;;32.50;14.40;;;;;;;11.28;66.65;99773.45;25177;1316;3052869;-77
2022/04/15 06:16:22;;;;;;;27.10;13.80;;;;;;;11.27;66.75;99778.23;25224;1316;3055355;-78
2022/04/15 06:18:51;;;;;;;31.50;14.90;;;;;;;11.19;67.04;99776.74;25245;1316;3026622;-75
2022/04/15 06:21:40;;;;;;;26.40;12.20;;;;;;;11.38;67.17;99778.84;25166;1316;3069074;-75
2022/04/15 06:24:10;;;;;;;22.60;11.00;;;;;;;12.23;65.38;99775.64;25140;1316;3026308;-77
2022/04/15 06:26:39;;;;;;;27.40;13.10;;;;;;;13.00;62.86;99776.52;25277;1316;3026441;-77
2022/04/15 06:29:08;;;;;;;38.00;14.30;;;;;;;13.22;62.12;99778.59;25168;1315;3026646;-78
2022/04/15 06:31:37;;;;;;;32.60;15.10;;;;;;;13.26;61.85;99782.58;25283;1316;3048928;-78
2022/04/15 06:34:07;;;;;;;49.10;20.70;;;;;;;13.17;61.84;99785.26;25215;1316;3027161;-77
2022/04/15 06:36:36;;;;;;;66.10;31.30;;;;;;;13.07;60.92;99778.69;25170;1313;3026273;-76
2022/04/15 06:39:05;;;;;;;84.30;38.30;;;;;;;13.01;61.11;99774.35;25301;1316;3051399;-78
2022/04/15 06:41:34;;;;;;;75.10;34.90;;;;;;;12.90;60.82;99777.75;25114;1316;3026415;-75
2022/04/15 06:44:04;;;;;;;73.70;34.40;;;;;;;12.76;61.49;99779.16;25241;1313;3026298;-76
2022/04/15 06:46:33;;;;;;;98.20;40.40;;;;;;;12.83;61.53;99779.98;25250;1316;3051679;-76
2022/04/15 06:49:03;;;;;;;115.40;46.80;;;;;;;12.91;60.91;99778.70;25170;1316;3026642;-78
2022/04/15 06:51:33;;;;;;;89.00;36.60;;;;;;;12.84;60.51;99776.73;25210;1315;3026247;-75
2022/04/15 06:54:02;;;;;;;96.40;39.30;;;;;;;12.85;60.66;99778.73;25159;1315;3027399;-77
2022/04/15 06:56:31;;;;;;;84.50;36.50;;;;;;;12.88;60.79;99784.89;25141;1316;3052222;-75
2022/04/15 06:59:00;;;;;;;79.90;35.00;;;;;;;12.92;60.91;99783.20;25175;1312;3027124;-77
2022/04/15 07:01:30;;;;;;;71.30;31.60;;;;;;;12.91;61.05;99781.52;25272;1312;3027405;-76
2022/04/15 07:03:59;;;;;;;95.40;35.20;;;;;;;12.91;61.21;99786.30;25258;1315;3026252;-77
2022/04/15 07:06:28;;;;;;;94.30;40.20;;;;;;;12.94;61.39;99785.19;24914;1316;3439248;-79
2022/04/15 07:08:57;;;;;;;81.20;33.40;;;;;;;12.99;61.11;99783.84;25250;1313;3055900;-77
2022/04/15 07:11:26;;;;;;;59.80;26.40;;;;;;;13.07;60.02;99785.39;25146;1316;3026208;-78
2022/04/15 07:13:55;;;;;;;64.10;24.90;;;;;;;13.01;59.90;99792.31;25309;1313;3052401;-78
2022/04/15 07:16:24;;;;;;;52.00;22.70;;;;;;;13.00;59.61;99790.92;25166;1314;3026661;-78
2022/04/15 07:18:56;;;;;;;46.40;20.20;;;;;;;13.02;59.26;99793.48;25205;1313;3052812;-76
2022/04/15 07:21:45;;;;;;;52.90;22.50;;;;;;;13.03;59.32;99797.98;25274;1316;3055473;-78
2022/04/15 07:24:14;;;;;;;51.90;19.80;;;;;;;13.13;60.01;99797.87;25232;1312;3026492;-77
2022/04/15 07:26:44;;;;;;;41.00;16.00;;;;;;;13.23;60.04;99798.07;25166;1316;3055371;-78
2022/04/15 07:29:13;;;;;;;53.20;16.70;;;;;;;13.25;59.35;99800.04;25247;1315;3026883;-74
2022/04/15 07:31:43;;;;;;;38.90;18.10;;;;;;;13.15;59.68;99799.28;25274;1315;3026244;-79
2022/04/15 07:34:12;;;;;;;48.80;18.90;;;;;;;13.14;60.26;99802.86;25212;1316;3026855;-77
2022/04/15 07:39:11;;;;;;;39.90;18.50;;;;;;;12.99;60.46;99802.97;25195;1316;3028466;-77
2022/04/15 07:41:40;;;;;;;42.00;18.60;;;;;;;13.11;60.52;99805.55;25181;1316;3027308;-75
2022/04/15 07:44:10;;;;;;;40.30;17.30;;;;;;;13.13;59.88;99808.39;25255;1315;3027289;-77
2022/04/15 07:46:41;;;;;;;37.80;16.20;;;;;;;13.17;60.18;99802.68;25203;1312;3026842;-77
2022/04/15 07:49:10;;;;;;;29.60;13.00;;;;;;;13.23;59.09;99804.96;25193;1315;3026490;-77
2022/04/15 07:51:40;;;;;;;39.70;14.30;;;;;;;12.99;59.44;99803.50;25167;1313;3026809;-77
2022/04/15 07:54:09;;;;;;;33.10;13.10;;;;;;;12.97;59.62;99801.71;25179;1315;3026810;-76
2022/04/15 07:56:38;;;;;;;36.40;13.70;;;;;;;12.98;59.17;99797.96;25150;1312;3027013;-78
2022/04/15 07:59:33;;;;;;;39.90;16.10;;;;;;;12.97;59.68;99801.17;25271;1312;3051695;-78
2022/04/15 08:02:27;;;;;;;40.20;17.30;;;;;;;12.86;60.06;99805.27;25216;1312;3054382;-76
2022/04/15 08:05:21;;;;;;;37.70;17.40;;;;;;;12.92;60.20;99803.05;25287;1312;3052812;-77
2022/04/15 08:08:15;;;;;;;47.60;19.10;;;;;;;12.89;60.05;99797.29;25276;1312;3056378;-78
2022/04/15 08:11:09;;;;;;;48.90;17.40;;;;;;;12.95;60.63;99800.60;25252;1312;3050505;-75
2022/04/15 08:14:04;;;;;;;34.10;15.30;;;;;;;12.96;60.07;99796.86;25162;1313;3053725;-78
2022/04/15 08:16:58;;;;;;;22.80;11.90;;;;;;;12.85;59.42;99796.89;25155;1312;3053106;-77
2022/04/15 08:20:18;;;;;;;28.50;12.50;;;;;;;13.09;58.81;99797.36;25116;1312;3069518;-76
2022/04/15 08:23:38;;;;;;;29.20;12.90;;;;;;;13.13;58.39;99792.38;25151;1312;3050920;-77
2022/04/15 08:26:58;;;;;;;33.90;13.20;;;;;;;13.28;58.12;99790.15;25185;1312;3051443;-77
2022/04/15 08:30:18;;;;;;;28.30;13.30;;;;;;;13.21;57.58;99793.60;25167;1313;3052198;-77
2022/04/15 08:32:51;;;;;;;27.90;12.40;;;;;;;13.28;57.75;99789.68;25260;1312;3026894;-77
2022/04/15 08:35:21;;;;;;;28.10;13.60;;;;;;;13.29;56.87;99794.01;25136;1315;3052249;-75
2022/04/15 08:37:51;;;;;;;33.90;14.00;;;;;;;13.29;56.98;99791.71;25265;1312;3026810;-74
2022/04/15 08:40:20;;;;;;;27.00;13.70;;;;;;;13.25;57.27;99790.39;25152;1313;3026675;-76
2022/04/15 08:42:49;;;;;;;27.30;14.50;;;;;;;13.31;57.23;99784.88;25198;1312;3026981;-75
2022/04/15 08:45:23;;;;;;;26.80;13.40;;;;;;;13.35;57.88;99784.11;25239;1315;3027382;-76
2022/04/15 08:48:02;;;;;;;32.70;15.30;;;;;;;13.33;57.16;99784.43;25160;1313;3056227;-76
2022/04/15 08:50:32;;;;;;;39.30;15.80;;;;;;;13.41;56.96;99787.45;25197;1313;3052329;-78
2022/04/15 08:53:22;;;;;;;27.10;14.80;;;;;;;13.47;56.51;99787.31;25180;1316;3052957;-78
2022/04/15 08:55:51;;;;;;;27.50;14.20;;;;;;;13.57;55.83;99788.08;25267;1315;3026799;-76
2022/04/15 08:58:20;;;;;;;27.00;13.50;;;;;;;13.66;56.06;99787.31;25148;1315;3026429;-77
2022/04/15 09:00:50;;;;;;;26.90;13.10;;;;;;;13.79;56.05;99787.48;25152;1313;3055413;-79
2022/04/15 09:03:19;;;;;;;22.10;12.20;;;;;;;13.85;56.18;99786.76;25183;1315;3028088;-77
2022/04/15 09:05:52;;;;;;;28.00;12.70;;;;;;;13.96;55.88;99781.18;25185;1316;3051615;-76
2022/04/15 09:08:21;;;;;;;19.90;13.10;;;;;;;13.81;55.31;99780.84;25237;1315;3028007;-77
2022/04/15 09:11:03;;;;;;;28.00;11.70;;;;;;;13.93;55.08;99774.38;25209;1313;3051525;-77
2022/04/15 09:13:34;;;;;;;23.10;12.20;;;;;;;14.00;55.55;99770.00;25176;1313;3026536;-79
2022/04/15 09:16:06;;;;;;;24.60;11.90;;;;;;;14.06;55.21;99774.66;25133;1315;3053673;-77
2022/04/15 09:18:37;;;;;;;26.60;12.50;;;;;;;14.04;54.91;99770.39;25220;1316;3026138;-75
2022/04/15 09:21:24;;;;;;;23.90;12.50;;;;;;;14.03;55.71;99768.55;25142;1315;3029534;-76
2022/04/15 09:23:54;;;;;;;21.10;12.00;;;;;;;13.95;55.41;99774.73;25209;1316;3054076;-76
2022/04/15 09:26:24;;;;;;;25.70;12.70;;;;;;;13.82;55.64;99769.46;25219;1315;3026597;-79
2022/04/15 09:28:53;;;;;;;21.40;11.80;;;;;;;13.95;55.01;99765.46;25255;1315;3026736;-79
2022/04/15 09:31:23;;;;;;;22.70;12.50;;;;;;;13.93;55.23;99765.55;25239;1316;3052508;-76
2022/04/15 09:33:57;;;;;;;20.50;11.10;;;;;;;14.05;55.05;99766.00;25874;1314;3027187;-76
2022/04/15 09:36:41;;;;;;;15.10;10.10;;;;;;;13.72;56.07;99772.27;25975;1314;3069060;-77
2022/04/15 09:39:19;;;;;;;13.90;7.90;;;;;;;13.65;56.47;99772.95;25984;1316;3049365;-74
2022/04/15 09:41:48;;;;;;;14.20;8.00;;;;;;;13.61;56.66;99773.71;25216;1316;3054855;-76
2022/04/15 09:44:17;;;;;;;12.30;8.50;;;;;;;13.49;56.55;99774.36;25299;1316;3028286;-77
2022/04/15 09:46:47;;;;;;;16.80;8.70;;;;;;;13.56;56.86;99770.55;25256;1316;3052227;-77
2022/04/15 09:49:35;;;;;;;16.70;8.60;;;;;;;13.89;56.16;99763.57;25238;1315;3053265;-74
2022/04/15 09:52:06;;;;;;;18.50;8.40;;;;;;;13.81;56.42;99766.23;25181;1315;3027458;-77
2022/04/15 09:54:43;;;;;;;18.10;7.20;;;;;;;13.66;56.69;99771.83;25234;1316;3051561;-77
2022/04/15 09:57:13;;;;;;;16.60;7.30;;;;;;;13.71;56.81;99771.08;25119;1316;3028802;-78
2022/04/15 09:59:44;;;;;;;15.40;7.40;;;;;;;13.75;56.68;99766.62;25150;1316;3071287;-77
2022/04/15 10:02:13;;;;;;;26.20;6.70;;;;;;;13.72;56.64;99769.83;25208;1316;3028749;-76
2022/04/15 10:04:42;;;;;;;15.40;6.80;;;;;;;13.88;56.17;99762.38;25153;1316;3026830;-78
2022/04/15 10:07:13;;;;;;;16.00;7.20;;;;;;;13.93;56.11;99765.57;25126;1315;3026299;-76
2022/04/15 10:09:51;;;;;;;13.60;7.10;;;;;;;14.01;56.13;99757.05;25177;1316;3059143;-75
2022/04/15 10:12:19;;;;;;;15.40;7.20;;;;;;;14.01;56.69;99761.82;25213;1313;3029804;-77
2022/04/15 10:14:55;;;;;;;16.70;7.70;;;;;;;13.74;57.35;99766.31;25245;1316;3054820;-75
2022/04/15 10:17:27;;;;;;;13.70;8.20;;;;;;;13.40;58.39;99766.14;25123;1316;3027500;-77
2022/04/15 10:20:00;;;;;;;21.70;8.70;;;;;;;13.44;58.68;99763.80;25150;1315;3052090;-77
2022/04/15 10:22:30;;;;;;;16.30;8.10;;;;;;;13.73;58.11;99754.27;25174;1316;3028687;-78
2022/04/15 10:25:03;;;;;;;14.80;7.30;;;;;;;13.79;56.83;99757.34;25168;1316;3027147;-77
2022/04/15 10:27:33;;;;;;;19.30;8.60;;;;;;;13.68;57.09;99759.54;25114;1316;3027067;-77
2022/04/15 10:30:19;;;;;;;14.40;6.60;;;;;;;13.49;57.85;99762.27;25178;1316;3027745;-75
2022/04/15 10:32:57;;;;;;;12.40;6.80;;;;;;;13.73;57.49;99756.34;25158;1316;3054940;-76
2022/04/15 10:35:33;;;;;;;15.90;9.10;;;;;;;13.75;57.58;99750.98;25190;1315;3052334;-76
2022/04/15 10:38:09;;;;;;;14.70;8.20;;;;;;;13.30;58.56;99764.19;25244;1315;3056212;-74
2022/04/15 10:40:44;;;;;;;11.70;7.40;;;;;;;13.21;59.39;99758.81;25145;1315;3051770;-73
2022/04/15 10:43:24;;;;;;;11.60;6.40;;;;;;;13.18;59.15;99756.70;25227;1313;3027673;-77
2022/04/15 10:46:14;;;;;;;21.80;7.30;;;;;;;13.04;59.79;99756.25;25289;1315;3050182;-75
2022/04/15 10:48:43;;;;;;;15.70;7.60;;;;;;;13.35;59.20;99747.30;25216;1316;3071477;-77
2022/04/15 10:51:12;;;;;;;15.70;8.00;;;;;;;13.37;58.97;99750.52;25199;1316;3026369;-77
2022/04/15 10:53:44;;;;;;;10.80;6.60;;;;;;;13.28;59.28;99745.98;25144;1313;3052510;-76
2022/04/15 10:56:14;;;;;;;13.90;6.90;;;;;;;13.18;59.28;99747.23;25287;1313;3026793;-75
2022/04/15 11:01:59;;;;;;;23.10;7.30;;;;;;;13.12;59.47;99744.83;25184;1313;3055551;-77
2022/04/15 11:04:35;;;;;;;15.10;7.40;;;;;;;13.05;59.99;99739.31;25135;1313;3055335;-77
2022/04/15 11:07:14;;;;;;;12.90;6.60;;;;;;;13.17;60.10;99737.61;25131;1315;3059371;-77
2022/04/15 11:09:43;;;;;;;17.90;7.50;;;;;;;13.51;58.89;99737.95;25221;1313;3050150;-75
2022/04/15 11:12:13;;;;;;;18.30;7.10;;;;;;;13.46;58.69;99735.69;25225;1315;3026546;-79
2022/04/15 11:14:43;;;;;;;15.00;7.30;;;;;;;13.36;59.25;99735.09;25106;1315;3026431;-72
2022/04/15 11:17:12;;;;;;;18.20;7.40;;;;;;;13.37;59.71;99734.01;25117;1315;3051527;-72
2022/04/15 11:19:41;;;;;;;17.60;7.70;;;;;;;13.22;59.97;99733.95;25141;1316;3026330;-73
2022/04/15 11:22:11;;;;;;;13.70;7.20;;;;;;;13.49;59.48;99722.80;25181;1315;3038383;-71
2022/04/15 11:24:41;;;;;;;14.10;7.50;;;;;;;13.64;58.75;99723.58;25153;1315;3052551;-75
2022/04/15 11:27:10;;;;;;;13.80;6.60;;;;;;;13.57;58.70;99723.31;25096;1315;3028204;-77
2022/04/15 11:29:39;;;;;;;11.90;7.40;;;;;;;13.79;57.96;99712.15;25190;1315;3026426;-73
2022/04/15 11:32:08;;;;;;;31.50;8.00;;;;;;;13.85;58.19;99711.73;25163;1315;3049046;-75
2022/04/15 11:34:37;;;;;;;15.70;6.60;;;;;;;14.05;57.23;99717.68;25175;1315;3029026;-75
2022/04/15 11:37:07;;;;;;;19.30;7.60;;;;;;;14.15;56.90;99713.13;25176;1316;3058169;-70